createdAt,value
2022-11-25T00:01:23.739Z,77.42
2022-11-25T00:03:52.730Z,77.45
2022-11-25T00:06:30.616Z,77.53
2022-11-25T00:09:01.371Z,77.71
2022-11-25T00:11:29.149Z,77.34
2022-11-25T00:13:57.640Z,77.37
2022-11-25T00:16:26.652Z,77.17
2022-11-25T00:18:55.653Z,77.64
2022-11-25T00:21:26.119Z,77.39
2022-11-25T00:23:56.059Z,77.02
2022-11-25T00:26:24.405Z,76.90
2022-11-25T00:28:52.082Z,76.75
2022-11-25T00:31:22.963Z,76.85
2022-11-25T00:33:50.587Z,76.92
2022-11-25T00:36:21.266Z,76.98
2022-11-25T00:38:53.653Z,76.70
2022-11-25T00:41:38.867Z,77.15
2022-11-25T00:44:24.509Z,76.81
2022-11-25T00:46:51.289Z,76.78
2022-11-25T00:49:18.096Z,76.71
2022-11-25T00:51:44.987Z,77.34
2022-11-25T00:54:12.260Z,77.16
2022-11-25T00:56:39.249Z,76.79
2022-11-25T00:59:06.170Z,77.44
2022-11-25T01:01:33.556Z,77.10
2022-11-25T01:04:00.440Z,77.43
2022-11-25T01:06:27.281Z,77.03
2022-11-25T01:08:54.481Z,77.30
2022-11-25T01:11:23.152Z,76.97
2022-11-25T01:13:50.713Z,77.12
2022-11-25T01:16:19.996Z,76.74
2022-11-25T01:18:47.813Z,76.90
2022-11-25T01:21:22.363Z,76.86
2022-11-25T01:23:50.088Z,76.86
2022-11-25T01:26:23.799Z,76.53
2022-11-25T01:28:56.758Z,76.60
2022-11-25T01:31:26.165Z,76.18
2022-11-25T01:34:03.172Z,76.17
2022-11-25T01:36:30.823Z,76.12
2022-11-25T01:39:00.169Z,76.42
2022-11-25T01:41:30.586Z,76.31
2022-11-25T01:44:14.568Z,76.32
2022-11-25T01:46:56.144Z,76.91
2022-11-25T01:49:44.873Z,76.98
2022-11-25T01:52:29.805Z,76.74
2022-11-25T01:55:14.743Z,76.83
2022-11-25T01:57:48.781Z,76.83
2022-11-25T02:00:17.044Z,77.19
2022-11-25T02:02:44.550Z,77.01
2022-11-25T02:05:23.182Z,76.99
2022-11-25T02:07:52.937Z,76.67
2022-11-25T02:10:27.679Z,76.50
2022-11-25T02:12:54.998Z,76.55
2022-11-25T02:15:22.368Z,76.16
2022-11-25T02:17:49.726Z,76.75
2022-11-25T02:20:20.505Z,76.54
2022-11-25T02:23:25.602Z,76.65
2022-11-25T02:25:54.587Z,76.78
2022-11-25T02:28:31.369Z,77.30
2022-11-25T02:30:59.004Z,77.10
2022-11-25T02:33:28.630Z,77.00
2022-11-25T02:36:15.100Z,77.20
2022-11-25T02:38:45.438Z,76.99
2022-11-25T02:41:29.028Z,77.25
2022-11-25T02:43:55.893Z,77.49
2022-11-25T02:46:25.732Z,77.33
2022-11-25T02:49:10.994Z,77.38
2022-11-25T02:51:40.996Z,77.38
2022-11-25T02:54:08.191Z,77.21
2022-11-25T02:56:36.728Z,76.89
2022-11-25T02:59:04.573Z,76.63
2022-11-25T03:01:32.115Z,77.08
2022-11-25T03:03:59.750Z,76.75
2022-11-25T03:06:26.740Z,76.35
2022-11-25T03:08:53.620Z,76.56
2022-11-25T03:11:20.575Z,76.38
2022-11-25T03:13:47.393Z,76.52
2022-11-25T03:16:14.241Z,76.54
2022-11-25T03:18:41.140Z,76.78
2022-11-25T03:21:07.939Z,76.64
2022-11-25T03:23:34.757Z,76.90
2022-11-25T03:26:07.261Z,76.74
2022-11-25T03:28:34.152Z,77.04
2022-11-25T03:31:00.961Z,77.25
2022-11-25T03:33:27.824Z,77.55
2022-11-25T03:35:54.604Z,77.17
2022-11-25T03:38:21.418Z,76.73
2022-11-25T03:40:48.322Z,75.89
2022-11-25T03:43:15.187Z,76.19
2022-11-25T03:45:42.020Z,76.32
2022-11-25T03:48:08.952Z,76.39
2022-11-25T03:50:35.723Z,75.74
2022-11-25T03:53:02.494Z,76.35
2022-11-25T03:55:29.288Z,76.80
2022-11-25T03:57:56.121Z,77.27
2022-11-25T04:00:22.953Z,77.10
2022-11-25T04:02:49.803Z,77.28
2022-11-25T04:05:16.759Z,77.25
2022-11-25T04:07:43.721Z,76.99
2022-11-25T04:10:11.494Z,76.76
2022-11-25T04:12:47.250Z,76.60
2022-11-25T04:15:18.697Z,76.85
2022-11-25T04:17:45.755Z,76.95
2022-11-25T04:20:14.751Z,77.28
2022-11-25T04:22:42.188Z,76.91
2022-11-25T04:25:10.502Z,77.07
2022-11-25T04:27:37.352Z,77.25
2022-11-25T04:30:05.989Z,76.88
2022-11-25T04:32:32.797Z,76.42
2022-11-25T04:34:59.621Z,76.31
2022-11-25T04:37:26.460Z,76.64
2022-11-25T04:39:53.303Z,76.47
2022-11-25T04:42:31.890Z,76.06
2022-11-25T04:45:26.418Z,75.67
2022-11-25T04:47:53.327Z,75.88
2022-11-25T04:50:23.303Z,76.13
2022-11-25T04:52:50.596Z,75.97
2022-11-25T04:55:17.494Z,75.97
2022-11-25T04:57:44.286Z,75.69
2022-11-25T05:00:12.064Z,76.16
2022-11-25T05:02:39.141Z,75.54
2022-11-25T05:05:06.826Z,75.52
2022-11-25T05:07:33.838Z,75.71
2022-11-25T05:10:00.686Z,75.79
2022-11-25T05:12:29.503Z,75.76
2022-11-25T05:14:57.002Z,76.28
2022-11-25T05:17:28.026Z,76.09
2022-11-25T05:19:54.964Z,75.63
2022-11-25T05:22:25.804Z,75.51
2022-11-25T05:24:52.628Z,75.38
2022-11-25T05:27:20.771Z,74.98
2022-11-25T05:29:54.282Z,74.85
2022-11-25T05:32:22.739Z,75.24
2022-11-25T05:34:49.556Z,75.05
2022-11-25T05:37:19.913Z,75.58
2022-11-25T05:39:50.920Z,75.22
2022-11-25T05:42:17.860Z,75.13
2022-11-25T05:44:44.666Z,74.98
2022-11-25T05:47:11.486Z,74.90
2022-11-25T05:49:38.299Z,74.96
2022-11-25T05:52:05.262Z,74.96
2022-11-25T05:54:32.087Z,75.25
2022-11-25T05:56:58.970Z,75.17
2022-11-25T05:59:25.768Z,74.82
2022-11-25T06:01:56.754Z,74.97
2022-11-25T06:04:23.566Z,75.01
2022-11-25T06:06:50.377Z,74.89
2022-11-25T06:09:17.196Z,75.90
2022-11-25T06:11:44.058Z,75.93
2022-11-25T06:14:10.841Z,76.00
2022-11-25T06:16:37.780Z,75.77
2022-11-25T06:19:06.696Z,75.78
2022-11-25T06:21:33.835Z,75.60
2022-11-25T06:24:01.076Z,76.00
2022-11-25T06:26:27.919Z,76.08
2022-11-25T06:28:56.343Z,75.70
2022-11-25T06:31:25.967Z,76.06
2022-11-25T06:33:54.144Z,76.39
2022-11-25T06:36:22.527Z,76.38
2022-11-25T06:38:52.946Z,76.12
2022-11-25T06:41:21.810Z,76.30
2022-11-25T06:43:48.631Z,76.29
2022-11-25T06:46:24.527Z,76.51
2022-11-25T06:48:53.397Z,76.28
2022-11-25T06:51:20.442Z,76.37
2022-11-25T06:53:47.436Z,76.85
2022-11-25T06:56:24.003Z,77.06
2022-11-25T06:58:51.846Z,76.89
2022-11-25T07:01:29.990Z,77.22
2022-11-25T07:04:03.685Z,78.11
2022-11-25T07:06:32.116Z,78.80
2022-11-25T07:08:59.495Z,77.83
2022-11-25T07:11:33.530Z,76.08
2022-11-25T07:14:04.859Z,76.07
2022-11-25T07:16:34.666Z,76.81
2022-11-25T07:19:02.743Z,76.74
2022-11-25T07:21:31.856Z,76.40
2022-11-25T07:24:01.439Z,76.17
2022-11-25T07:26:32.212Z,75.15
2022-11-25T07:29:02.042Z,75.21
2022-11-25T07:31:35.402Z,74.88
2022-11-25T07:34:13.848Z,74.91
2022-11-25T07:36:41.803Z,76.11
2022-11-25T07:39:19.405Z,74.76
2022-11-25T07:41:49.277Z,74.17
2022-11-25T07:44:16.387Z,73.72
2022-11-25T07:46:49.084Z,72.72
2022-11-25T07:49:22.470Z,72.25
2022-11-25T07:51:50.659Z,72.72
2022-11-25T07:54:17.648Z,73.04
2022-11-25T07:56:45.231Z,73.62
2022-11-25T07:59:19.055Z,73.30
2022-11-25T08:01:46.325Z,73.77
2022-11-25T08:04:19.791Z,73.30
2022-11-25T08:06:51.502Z,73.56
2022-11-25T08:09:22.357Z,74.40
2022-11-25T08:11:49.795Z,74.04
2022-11-25T08:14:17.762Z,73.25
2022-11-25T08:16:45.131Z,72.33
2022-11-25T08:19:16.377Z,72.14
2022-11-25T08:21:43.898Z,72.84
2022-11-25T08:24:18.773Z,72.12
2022-11-25T08:26:45.850Z,70.85
2022-11-25T08:29:18.687Z,71.12
2022-11-25T08:31:45.967Z,69.24
2022-11-25T08:34:31.005Z,66.96
2022-11-25T08:36:58.339Z,67.86
2022-11-25T08:42:12.599Z,67.49
2022-11-25T08:44:39.504Z,67.72
2022-11-25T08:47:06.476Z,67.78
2022-11-25T08:49:39.067Z,68.36
2022-11-25T08:52:07.554Z,68.00
2022-11-25T08:54:34.386Z,68.93
2022-11-25T08:57:01.172Z,68.34
2022-11-25T08:59:28.095Z,68.29
2022-11-25T09:01:55.458Z,67.87
2022-11-25T09:04:22.381Z,68.23
2022-11-25T09:06:49.237Z,70.33
2022-11-25T09:09:16.088Z,68.02
2022-11-25T09:11:43.034Z,65.84
2022-11-25T09:14:09.934Z,64.89
2022-11-25T09:16:36.997Z,64.50
2022-11-25T09:19:04.288Z,64.43
2022-11-25T09:21:31.162Z,65.08
2022-11-25T09:23:58.113Z,64.57
2022-11-25T09:26:29.548Z,65.51
2022-11-25T09:28:56.923Z,64.74
2022-11-25T09:31:24.466Z,65.75
2022-11-25T09:33:51.479Z,62.10
2022-11-25T09:36:20.864Z,62.15
2022-11-25T09:38:47.785Z,62.94
2022-11-25T09:41:59.731Z,63.04
2022-11-25T09:45:13.318Z,58.72
2022-11-25T09:48:03.338Z,57.93
2022-11-25T09:51:17.192Z,57.73
2022-11-25T09:53:57.998Z,55.64
2022-11-25T09:56:36.396Z,52.46
2022-11-25T09:59:22.304Z,49.98
2022-11-25T10:02:23.094Z,50.30
2022-11-25T10:04:59.620Z,52.34
2022-11-25T10:07:43.551Z,52.50
2022-11-25T10:10:41.921Z,48.88
2022-11-25T10:13:26.732Z,46.44
2022-11-25T10:15:59.677Z,45.53
2022-11-25T10:18:39.360Z,42.04
2022-11-25T10:21:06.471Z,41.00
2022-11-25T10:23:38.555Z,40.38
2022-11-25T10:26:17.889Z,40.12
2022-11-25T10:28:56.216Z,39.40
2022-11-25T10:31:35.658Z,37.87
2022-11-25T10:34:36.700Z,38.75
2022-11-25T10:37:13.036Z,38.47
2022-11-25T10:39:40.365Z,42.68
2022-11-25T10:42:21.321Z,42.18
2022-11-25T10:44:48.119Z,43.10
2022-11-25T10:47:52.642Z,43.05
2022-11-25T10:50:48.193Z,41.15
2022-11-25T10:53:24.750Z,39.32
2022-11-25T10:56:24.120Z,38.96
2022-11-25T10:58:50.952Z,38.38
2022-11-25T11:01:25.585Z,37.56
2022-11-25T11:04:04.454Z,37.11
2022-11-25T11:06:46.163Z,40.14
2022-11-25T11:09:46.028Z,43.83
2022-11-25T11:12:29.930Z,41.07
2022-11-25T11:15:21.940Z,39.09
2022-11-25T11:17:49.293Z,40.05
2022-11-25T11:20:31.295Z,39.71
2022-11-25T11:23:14.624Z,37.49
2022-11-25T11:25:45.271Z,35.52
2022-11-25T11:28:37.193Z,34.07
2022-11-25T11:31:10.321Z,33.87
2022-11-25T11:33:51.815Z,34.45
2022-11-25T11:37:06.881Z,33.60
2022-11-25T11:40:01.186Z,31.94
2022-11-25T11:42:46.765Z,31.74
2022-11-25T11:45:33.356Z,30.21
2022-11-25T11:48:16.080Z,30.49
2022-11-25T11:50:46.256Z,32.65
2022-11-25T11:53:31.140Z,35.71
2022-11-25T11:56:35.748Z,36.64
2022-11-25T11:59:25.881Z,37.47
2022-11-25T12:02:21.820Z,39.36
2022-11-25T12:05:25.999Z,44.42
2022-11-25T12:08:16.138Z,47.12
2022-11-25T12:10:55.377Z,47.88
2022-11-25T12:14:00.686Z,46.75
2022-11-25T12:16:36.472Z,46.87
2022-11-25T12:19:44.659Z,44.99
2022-11-25T12:22:19.060Z,43.29
2022-11-25T12:24:54.207Z,41.55
2022-11-25T12:27:24.523Z,41.15
2022-11-25T12:31:04.737Z,42.81
2022-11-25T12:34:27.617Z,41.87
2022-11-25T12:37:15.135Z,36.86
2022-11-25T12:39:57.287Z,36.72
2022-11-25T12:42:26.176Z,36.67
2022-11-25T12:44:59.213Z,35.93
2022-11-25T12:47:26.992Z,36.41
2022-11-25T12:49:55.889Z,36.68
2022-11-25T12:52:46.718Z,38.18
2022-11-25T12:55:20.946Z,39.80
2022-11-25T12:58:02.940Z,42.13
2022-11-25T13:01:09.622Z,45.01
2022-11-25T13:04:17.166Z,46.75
2022-11-25T13:07:11.644Z,49.14
2022-11-25T13:10:39.737Z,47.97
2022-11-25T13:13:31.613Z,48.39
2022-11-25T13:16:02.018Z,46.79
2022-11-25T13:18:33.264Z,47.55
2022-11-25T13:21:12.465Z,47.56
2022-11-25T13:23:50.341Z,47.90
2022-11-25T13:26:29.589Z,48.18
2022-11-25T13:28:57.394Z,49.44
2022-11-25T13:31:31.390Z,50.61
2022-11-25T13:33:58.109Z,51.11
2022-11-25T13:36:44.341Z,51.07
2022-11-25T13:39:18.504Z,52.84
2022-11-25T13:42:01.470Z,53.37
2022-11-25T13:44:50.420Z,55.69
2022-11-25T13:47:46.528Z,55.89
2022-11-25T13:50:21.691Z,56.56
2022-11-25T13:53:24.669Z,56.12
2022-11-25T13:55:55.005Z,56.32
2022-11-25T13:58:33.129Z,57.54
2022-11-25T14:01:24.835Z,55.85
2022-11-25T14:04:00.354Z,57.40
2022-11-25T14:07:04.071Z,56.42
2022-11-25T14:10:04.749Z,56.81
2022-11-25T14:13:01.516Z,58.20
2022-11-25T14:15:43.132Z,59.24
2022-11-25T14:18:31.487Z,59.91
2022-11-25T14:21:32.744Z,60.87
2022-11-25T14:24:43.909Z,60.70
2022-11-25T14:27:19.376Z,60.81
2022-11-25T14:30:07.244Z,61.03
2022-11-25T14:32:59.664Z,61.34
2022-11-25T14:35:45.701Z,61.10
2022-11-25T14:38:23.341Z,61.42
2022-11-25T14:41:00.179Z,61.48
2022-11-25T14:43:29.002Z,60.79
2022-11-25T14:46:20.736Z,60.90
2022-11-25T14:49:00.867Z,61.74
2022-11-25T14:51:37.035Z,61.82
2022-11-25T14:54:08.449Z,61.68
2022-11-25T14:56:37.003Z,61.94
2022-11-25T14:59:04.201Z,62.27
2022-11-25T15:01:34.640Z,62.31
2022-11-25T15:04:24.178Z,62.04
2022-11-25T15:06:53.620Z,62.46
2022-11-25T15:09:28.318Z,62.88
2022-11-25T15:12:02.497Z,63.35
2022-11-25T15:14:39.349Z,64.30
2022-11-25T15:17:30.947Z,64.81
2022-11-25T15:20:12.039Z,65.42
2022-11-25T15:22:39.182Z,66.23
2022-11-25T15:25:14.807Z,67.06
2022-11-25T15:27:59.872Z,67.09
2022-11-25T15:30:31.880Z,67.23
2022-11-25T15:32:59.210Z,68.41
2022-11-25T15:35:27.531Z,68.77
2022-11-25T15:37:54.529Z,68.87
2022-11-25T15:40:33.820Z,69.46
2022-11-25T15:43:04.468Z,69.75
2022-11-25T15:45:44.613Z,70.63
2022-11-25T15:48:29.707Z,71.07
2022-11-25T15:51:31.560Z,71.33
2022-11-25T15:54:12.842Z,71.33
2022-11-25T15:56:53.368Z,71.70
2022-11-25T15:59:45.840Z,71.75
2022-11-25T16:02:34.122Z,72.25
2022-11-25T16:05:15.315Z,72.55
2022-11-25T16:07:51.563Z,72.63
2022-11-25T16:10:50.202Z,72.67
2022-11-25T16:13:37.867Z,72.72
2022-11-25T16:16:07.742Z,73.04
2022-11-25T16:18:52.625Z,73.21
2022-11-25T16:21:36.666Z,73.71
2022-11-25T16:24:06.418Z,73.55
2022-11-25T16:26:48.458Z,73.76
2022-11-25T16:29:27.945Z,73.75
2022-11-25T16:31:54.844Z,73.61
2022-11-25T16:34:24.246Z,75.15
2022-11-25T16:36:51.035Z,74.43
2022-11-25T16:39:17.863Z,74.30
2022-11-25T16:41:55.944Z,74.67
2022-11-25T16:44:25.554Z,74.55
2022-11-25T16:46:53.301Z,74.55
2022-11-25T16:49:22.551Z,74.88
2022-11-25T16:51:51.063Z,75.04
2022-11-25T16:54:23.832Z,75.23
2022-11-25T16:56:54.388Z,74.97
2022-11-25T16:59:31.857Z,75.42
2022-11-25T17:02:01.363Z,75.26
2022-11-25T17:04:29.284Z,75.25
2022-11-25T17:07:30.957Z,75.14
2022-11-25T17:09:45.039Z,75.44
2022-11-25T17:12:24.999Z,75.41
2022-11-25T17:14:52.814Z,75.81
2022-11-25T17:17:24.832Z,75.63
2022-11-25T17:19:53.371Z,75.79
2022-11-25T17:22:24.532Z,76.00
2022-11-25T17:24:51.925Z,76.18
2022-11-25T17:27:31.827Z,76.06
2022-11-25T17:30:03.538Z,76.28
2022-11-25T17:32:31.303Z,76.00
2022-11-25T17:34:58.135Z,75.97
2022-11-25T17:37:25.786Z,76.07
2022-11-25T17:39:53.649Z,76.22
2022-11-25T17:42:31.221Z,76.43
2022-11-25T17:44:58.621Z,76.49
2022-11-25T17:47:25.594Z,76.29
2022-11-25T17:49:53.206Z,76.45
2022-11-25T17:52:20.480Z,76.36
2022-11-25T17:54:47.321Z,76.75
2022-11-25T17:57:21.568Z,76.60
2022-11-25T17:59:48.529Z,77.28
2022-11-25T18:02:21.254Z,76.55
2022-11-25T18:04:48.943Z,76.60
2022-11-25T18:07:16.030Z,76.95
2022-11-25T18:09:44.304Z,76.75
2022-11-25T18:12:36.661Z,77.01
2022-11-25T18:15:08.233Z,76.71
2022-11-25T18:17:37.899Z,76.70
2022-11-25T18:20:21.103Z,76.95
2022-11-25T18:22:48.905Z,76.47
2022-11-25T18:25:18.964Z,76.62
2022-11-25T18:27:46.802Z,77.22
2022-11-25T18:30:24.386Z,77.18
2022-11-25T18:32:51.573Z,77.35
2022-11-25T18:35:22.395Z,76.80
2022-11-25T18:37:49.302Z,77.07
2022-11-25T18:40:16.608Z,76.77
2022-11-25T18:42:47.613Z,76.92
2022-11-25T18:45:28.718Z,76.61
2022-11-25T18:47:55.601Z,76.96
2022-11-25T18:50:26.613Z,76.62
2022-11-25T18:52:53.929Z,76.85
2022-11-25T18:55:23.105Z,76.65
2022-11-25T18:57:51.939Z,76.81
2022-11-25T19:00:33.547Z,76.52
2022-11-25T19:03:00.987Z,76.33
2022-11-25T19:05:33.806Z,76.23
2022-11-25T19:08:02.037Z,76.35
2022-11-25T19:10:35.870Z,76.15
2022-11-25T19:13:08.139Z,76.24
2022-11-25T19:15:37.444Z,76.04
2022-11-25T19:18:06.897Z,76.01
2022-11-25T19:20:33.804Z,76.26
2022-11-25T19:23:17.038Z,76.30
2022-11-25T19:25:44.838Z,76.21
2022-11-25T19:28:13.627Z,76.21
2022-11-25T19:30:40.738Z,76.07
2022-11-25T19:33:37.263Z,76.14
2022-11-25T19:36:06.098Z,76.26
2022-11-25T19:38:34.833Z,76.28
2022-11-25T19:41:01.823Z,76.69
2022-11-25T19:43:28.765Z,76.28
2022-11-25T19:45:57.305Z,76.37
2022-11-25T19:48:27.061Z,76.80
2022-11-25T19:50:59.463Z,76.27
2022-11-25T19:53:33.125Z,76.51
2022-11-25T19:56:03.891Z,76.76
2022-11-25T19:58:31.476Z,76.63
2022-11-25T20:01:05.821Z,77.45
2022-11-25T20:03:33.172Z,77.24
2022-11-25T20:05:59.993Z,76.52
2022-11-25T20:08:28.868Z,77.00
2022-11-25T20:10:57.464Z,76.71
2022-11-25T20:13:25.882Z,76.45
2022-11-25T20:15:55.765Z,76.50
2022-11-25T20:18:25.388Z,76.43
2022-11-25T20:21:04.371Z,76.60
2022-11-25T20:23:43.268Z,76.62
2022-11-25T20:26:23.371Z,76.42
2022-11-25T20:28:50.229Z,76.53
2022-11-25T20:31:17.143Z,76.82
2022-11-25T20:33:43.969Z,76.96
2022-11-25T20:36:16.184Z,77.04
2022-11-25T20:38:48.812Z,76.86
2022-11-25T20:41:16.467Z,77.28
2022-11-25T20:43:47.551Z,77.16
2022-11-25T20:46:22.807Z,76.83
2022-11-25T20:48:54.382Z,76.97
2022-11-25T20:51:22.843Z,77.30
2022-11-25T20:53:57.646Z,77.12
2022-11-25T20:56:26.587Z,77.71
2022-11-25T20:58:54.325Z,77.55
2022-11-25T21:01:21.537Z,77.51
2022-11-25T21:03:50.409Z,77.70
2022-11-25T21:06:22.004Z,77.63
2022-11-25T21:08:52.228Z,77.91
2022-11-25T21:11:20.509Z,77.65
2022-11-25T21:13:48.219Z,77.54
2022-11-25T21:16:15.484Z,77.80
2022-11-25T21:18:43.288Z,77.87
2022-11-25T21:21:33.402Z,78.13
2022-11-25T21:24:15.829Z,78.00
2022-11-25T21:26:42.680Z,78.08
2022-11-25T21:29:16.576Z,78.32
2022-11-25T21:31:43.880Z,77.88
2022-11-25T21:34:13.640Z,78.40
2022-11-25T21:36:41.931Z,78.06
2022-11-25T21:39:27.072Z,78.51
2022-11-25T21:41:54.649Z,77.97
2022-11-25T21:44:31.080Z,78.27
2022-11-25T21:46:58.415Z,78.59
2022-11-25T21:49:26.695Z,78.32
2022-11-25T21:51:53.618Z,78.48
2022-11-25T21:54:20.546Z,77.89
2022-11-25T21:56:47.462Z,78.08
2022-11-25T21:59:20.088Z,77.95
2022-11-25T22:01:47.765Z,78.16
2022-11-25T22:04:19.633Z,77.98
2022-11-25T22:06:47.978Z,77.94
2022-11-25T22:09:14.824Z,77.74
2022-11-25T22:11:50.337Z,77.91
2022-11-25T22:14:29.021Z,77.81
2022-11-25T22:16:56.899Z,78.00
2022-11-25T22:19:26.710Z,77.68
2022-11-25T22:21:54.562Z,77.31
2022-11-25T22:24:22.131Z,77.88
2022-11-25T22:26:57.675Z,77.52
2022-11-25T22:29:31.834Z,77.56
2022-11-25T22:31:58.787Z,77.62
2022-11-25T22:34:25.798Z,77.15
2022-11-25T22:36:52.690Z,77.33
2022-11-25T22:39:25.654Z,77.34
2022-11-25T22:42:09.617Z,77.65
2022-11-25T22:44:43.288Z,77.59
2022-11-25T22:47:32.602Z,77.30
2022-11-25T22:50:03.495Z,77.59
2022-11-25T22:52:33.866Z,77.27
2022-11-25T22:55:31.772Z,77.36
2022-11-25T22:58:01.041Z,77.70
2022-11-25T23:00:32.983Z,77.77
2022-11-25T23:03:03.204Z,77.68
2022-11-25T23:05:34.167Z,77.52
2022-11-25T23:08:11.693Z,77.85
2022-11-25T23:10:38.521Z,77.63
2022-11-25T23:13:05.368Z,77.98
2022-11-25T23:15:32.211Z,78.06
2022-11-25T23:18:01.876Z,77.87
2022-11-25T23:20:37.699Z,77.83
2022-11-25T23:23:21.113Z,77.42
2022-11-25T23:25:48.909Z,77.32
2022-11-25T23:28:16.458Z,77.24
2022-11-25T23:30:55.550Z,77.81
2022-11-25T23:33:37.928Z,77.85
2022-11-25T23:36:44.634Z,78.25
2022-11-25T23:39:19.986Z,77.76
2022-11-25T23:41:47.340Z,77.38
2022-11-25T23:44:36.497Z,77.57
2022-11-25T23:47:06.488Z,77.26
2022-11-25T23:49:44.349Z,77.69
2022-11-25T23:52:16.032Z,77.48
2022-11-25T23:54:47.895Z,77.52
2022-11-25T23:57:22.817Z,77.39
2022-11-25T23:59:50.561Z,77.88
